createdAt,value
2022-09-12T00:02:10.353Z,99616.59
2022-09-12T00:04:57.516Z,99617.59
2022-09-12T00:07:43.817Z,99613.09
2022-09-12T00:10:30.336Z,99611.69
2022-09-12T00:13:16.549Z,99607.00
2022-09-12T00:16:03.267Z,99602.41
2022-09-12T00:18:49.511Z,99609.41
2022-09-12T00:21:37.421Z,99609.75
2022-09-12T00:24:23.485Z,99615.41
2022-09-12T00:27:09.884Z,99611.91
2022-09-12T00:29:55.626Z,99616.03
2022-09-12T00:32:41.932Z,99613.75
2022-09-12T00:35:27.749Z,99627.44
2022-09-12T00:38:14.415Z,99623.19
2022-09-12T00:41:00.360Z,99618.16
2022-09-12T00:44:04.948Z,99611.75
2022-09-12T00:47:01.239Z,99620.13
2022-09-12T00:50:10.017Z,99617.75
2022-09-12T00:53:00.180Z,99615.91
2022-09-12T00:55:49.489Z,99617.72
2022-09-12T00:58:51.643Z,99613.47
2022-09-12T01:01:38.989Z,99611.97
2022-09-12T01:04:26.800Z,99625.19
2022-09-12T01:07:13.467Z,99618.75
2022-09-12T01:09:59.603Z,99616.09
2022-09-12T01:12:46.495Z,99614.97
2022-09-12T01:15:32.443Z,99617.44
2022-09-12T01:18:25.231Z,99614.31
2022-09-12T01:21:30.482Z,99601.78
2022-09-12T01:24:26.272Z,99608.62
2022-09-12T01:27:15.285Z,99615.56
2022-09-12T01:30:19.621Z,99613.53
2022-09-12T01:33:30.681Z,99614.91
2022-09-12T01:36:24.198Z,99609.12
2022-09-12T01:39:39.709Z,99613.50
2022-09-12T01:42:42.013Z,99616.72
2022-09-12T01:45:29.191Z,99614.31
2022-09-12T01:48:22.704Z,99613.97
2022-09-12T01:51:18.507Z,99611.75
2022-09-12T01:54:16.915Z,99604.47
2022-09-12T01:57:07.604Z,99613.66
2022-09-12T01:59:58.226Z,99610.66
2022-09-12T02:03:02.633Z,99610.13
2022-09-12T02:05:56.858Z,99624.50
2022-09-12T02:08:48.260Z,99618.94
2022-09-12T02:11:35.734Z,99620.09
2022-09-12T02:14:25.596Z,99622.75
2022-09-12T02:17:14.470Z,99620.09
2022-09-12T02:20:07.275Z,99630.19
2022-09-12T02:22:54.285Z,99627.31
2022-09-12T02:25:43.355Z,99624.81
2022-09-12T02:28:35.726Z,99618.06
2022-09-12T02:31:29.145Z,99621.09
2022-09-12T02:34:15.390Z,99621.59
2022-09-12T02:37:24.384Z,99619.47
2022-09-12T02:40:11.334Z,99618.19
2022-09-12T02:42:57.403Z,99623.12
2022-09-12T02:45:44.217Z,99629.81
2022-09-12T02:48:36.774Z,99632.00
2022-09-12T02:51:23.873Z,99631.84
2022-09-12T02:54:10.394Z,99631.78
2022-09-12T02:56:56.685Z,99624.50
2022-09-12T02:59:42.499Z,99634.44
2022-09-12T03:02:51.998Z,99632.94
2022-09-12T03:05:44.848Z,99632.31
2022-09-12T03:09:06.724Z,99624.75
2022-09-12T03:11:55.803Z,99629.72
2022-09-12T03:15:02.190Z,99626.56
2022-09-12T03:17:58.377Z,99624.09
2022-09-12T03:20:53.849Z,99633.22
2022-09-12T03:24:01.435Z,99625.06
2022-09-12T03:27:17.500Z,99620.78
2022-09-12T03:30:08.367Z,99624.19
2022-09-12T03:32:55.428Z,99618.59
2022-09-12T03:35:41.725Z,99616.28
2022-09-12T03:38:27.878Z,99631.28
2022-09-12T03:41:14.416Z,99628.53
2022-09-12T03:44:00.612Z,99637.41
2022-09-12T03:46:46.466Z,99630.94
2022-09-12T03:49:32.950Z,99624.31
2022-09-12T03:52:19.751Z,99627.56
2022-09-12T03:55:06.703Z,99617.03
2022-09-12T03:57:53.986Z,99617.84
2022-09-12T04:00:40.967Z,99625.75
2022-09-12T04:03:28.184Z,99633.63
2022-09-12T04:06:17.612Z,99634.28
2022-09-12T04:09:05.532Z,99635.13
2022-09-12T04:11:51.265Z,99640.75
2022-09-12T04:14:37.668Z,99640.28
2022-09-12T04:17:23.556Z,99650.84
2022-09-12T04:20:09.941Z,99635.94
2022-09-12T04:22:55.700Z,99638.88
2022-09-12T04:25:42.139Z,99642.31
2022-09-12T04:28:29.140Z,99641.84
2022-09-12T04:31:22.673Z,99644.19
2022-09-12T04:34:08.832Z,99636.78
2022-09-12T04:36:55.071Z,99637.72
2022-09-12T04:39:41.326Z,99645.47
2022-09-12T04:42:27.502Z,99634.47
2022-09-12T04:45:13.703Z,99633.84
2022-09-12T04:47:59.887Z,99635.28
2022-09-12T04:50:45.942Z,99640.63
2022-09-12T04:53:35.240Z,99645.97
2022-09-12T04:56:21.901Z,99649.53
2022-09-12T04:59:08.802Z,99657.94
2022-09-12T05:01:54.889Z,99654.22
2022-09-12T05:04:41.180Z,99656.81
2022-09-12T05:07:27.029Z,99664.72
2022-09-12T05:10:13.334Z,99661.19
2022-09-12T05:12:58.988Z,99665.87
2022-09-12T05:15:54.551Z,99669.56
2022-09-12T05:18:40.323Z,99669.91
2022-09-12T05:21:27.189Z,99675.06
2022-09-12T05:24:13.122Z,99679.44
2022-09-12T05:26:59.316Z,99686.97
2022-09-12T05:29:45.305Z,99697.81
2022-09-12T05:32:32.429Z,99694.28
2022-09-12T05:35:18.511Z,99699.38
2022-09-12T05:38:06.221Z,99692.47
2022-09-12T05:40:52.379Z,99691.31
2022-09-12T05:43:40.200Z,99698.22
2022-09-12T05:46:31.193Z,99690.22
2022-09-12T05:49:17.355Z,99696.31
2022-09-12T05:52:03.637Z,99700.47
2022-09-12T05:54:50.076Z,99705.41
2022-09-12T05:57:36.421Z,99699.06
2022-09-12T06:00:22.619Z,99703.78
2022-09-12T06:03:08.909Z,99705.25
2022-09-12T06:05:54.772Z,99713.19
2022-09-12T06:08:52.729Z,99706.44
2022-09-12T06:11:52.128Z,99723.56
2022-09-12T06:14:38.909Z,99704.44
2022-09-12T06:17:25.304Z,99718.19
2022-09-12T06:20:11.689Z,99711.16
2022-09-12T06:22:58.166Z,99711.84
2022-09-12T06:25:50.118Z,99714.09
2022-09-12T06:28:38.040Z,99717.06
2022-09-12T06:31:26.851Z,99708.28
2022-09-12T06:34:14.232Z,99723.12
2022-09-12T06:37:00.863Z,99726.22
2022-09-12T06:39:46.942Z,99718.94
2022-09-12T06:42:33.546Z,99715.12
2022-09-12T06:45:20.450Z,99719.87
2022-09-12T06:48:06.910Z,99704.94
2022-09-12T06:51:07.421Z,99711.41
2022-09-12T06:53:57.698Z,99712.84
2022-09-12T06:56:44.359Z,99706.78
2022-09-12T06:59:30.580Z,99711.63
2022-09-12T07:02:17.238Z,99713.56
2022-09-12T07:05:04.442Z,99705.25
2022-09-12T07:07:50.281Z,99709.41
2022-09-12T07:10:36.742Z,99707.00
2022-09-12T07:13:22.595Z,99711.59
2022-09-12T07:16:10.471Z,99716.97
2022-09-12T07:18:59.948Z,99720.22
2022-09-12T07:21:46.421Z,99723.75
2022-09-12T07:24:32.986Z,99717.78
2022-09-12T07:27:19.210Z,99714.62
2022-09-12T07:30:06.533Z,99720.63
2022-09-12T07:32:53.858Z,99719.28
2022-09-12T07:35:40.058Z,99714.44
2022-09-12T07:38:26.104Z,99719.25
2022-09-12T07:41:18.816Z,99727.25
2022-09-12T07:44:07.034Z,99727.50
2022-09-12T07:46:53.244Z,99732.09
2022-09-12T07:49:39.601Z,99725.66
2022-09-12T07:52:25.685Z,99720.47
2022-09-12T07:55:12.218Z,99724.91
2022-09-12T07:57:58.791Z,99721.31
2022-09-12T08:00:45.957Z,99720.75
2022-09-12T08:03:32.123Z,99718.75
2022-09-12T08:06:30.322Z,99723.78
2022-09-12T08:09:17.529Z,99719.63
2022-09-12T08:12:03.845Z,99720.53
2022-09-12T08:14:50.242Z,99717.41
2022-09-12T08:17:35.940Z,99718.81
2022-09-12T08:20:27.714Z,99729.50
2022-09-12T08:23:14.439Z,99716.59
2022-09-12T08:26:06.169Z,99720.25
2022-09-12T08:28:53.275Z,99722.66
2022-09-12T08:31:41.335Z,99715.00
2022-09-12T08:34:27.491Z,99717.59
2022-09-12T08:37:14.017Z,99715.97
2022-09-12T08:40:00.156Z,99717.06
2022-09-12T08:43:01.235Z,99718.19
2022-09-12T08:45:54.129Z,99721.25
2022-09-12T08:48:41.327Z,99719.50
2022-09-12T08:51:28.384Z,99707.75
2022-09-12T08:54:21.873Z,99708.16
2022-09-12T08:57:09.355Z,99708.28
2022-09-12T08:59:56.223Z,99700.59
2022-09-12T09:02:54.223Z,99711.69
2022-09-12T09:06:00.581Z,99703.56
2022-09-12T09:08:58.441Z,99703.22
2022-09-12T09:12:06.792Z,99700.94
2022-09-12T09:14:55.937Z,99696.59
2022-09-12T09:17:44.835Z,99692.59
2022-09-12T09:20:37.096Z,99696.91
2022-09-12T09:23:42.750Z,99691.78
2022-09-12T09:26:39.541Z,99702.72
2022-09-12T09:29:34.222Z,99685.66
2022-09-12T09:32:27.089Z,99698.16
2022-09-12T09:35:36.231Z,99691.91
2022-09-12T09:38:25.568Z,99689.84
2022-09-12T09:41:36.212Z,99689.31
2022-09-12T09:44:22.419Z,99702.28
2022-09-12T09:47:10.872Z,99697.16
2022-09-12T09:49:57.070Z,99702.09
2022-09-12T09:52:44.418Z,99698.09
2022-09-12T09:55:41.532Z,99711.00
2022-09-12T09:58:32.482Z,99707.31
2022-09-12T10:01:20.053Z,99706.91
2022-09-12T10:04:06.646Z,99696.59
2022-09-12T10:06:54.502Z,99702.22
2022-09-12T10:09:41.607Z,99692.56
2022-09-12T10:12:28.555Z,99685.06
2022-09-12T10:15:26.584Z,99684.09
2022-09-12T10:18:12.486Z,99687.81
2022-09-12T10:20:59.113Z,99691.44
2022-09-12T10:23:45.226Z,99685.81
2022-09-12T10:26:38.761Z,99692.81
2022-09-12T10:29:28.863Z,99699.59
2022-09-12T10:32:38.641Z,99692.88
2022-09-12T10:35:41.967Z,99688.72
2022-09-12T10:38:31.712Z,99686.84
2022-09-12T10:41:18.402Z,99692.69
2022-09-12T10:44:10.550Z,99690.44
2022-09-12T10:46:57.153Z,99695.09
2022-09-12T10:49:43.719Z,99696.28
2022-09-12T10:52:29.503Z,99695.31
2022-09-12T10:55:16.049Z,99698.66
2022-09-12T10:58:18.334Z,99690.44
2022-09-12T11:01:14.185Z,99688.50
2022-09-12T11:04:09.641Z,99680.34
2022-09-12T11:07:15.425Z,99682.84
2022-09-12T11:10:14.180Z,99682.56
2022-09-12T11:13:28.336Z,99696.59
2022-09-12T11:16:36.395Z,99675.53
2022-09-12T11:19:36.497Z,99689.78
2022-09-12T11:22:31.063Z,99692.31
2022-09-12T11:25:22.398Z,99696.66
2022-09-12T11:28:28.662Z,99701.84
2022-09-12T11:31:31.962Z,99695.25
2022-09-12T11:34:44.191Z,99696.37
2022-09-12T11:37:45.661Z,99686.00
2022-09-12T11:40:42.153Z,99687.75
2022-09-12T11:43:51.914Z,99682.38
2022-09-12T11:46:39.753Z,99679.97
2022-09-12T11:49:35.863Z,99688.56
2022-09-12T11:52:26.586Z,99693.53
2022-09-12T11:55:18.708Z,99688.94
2022-09-12T11:58:05.333Z,99684.31
2022-09-12T12:00:54.620Z,99678.81
2022-09-12T12:03:43.740Z,99689.97
2022-09-12T12:07:10.462Z,99679.81
2022-09-12T12:09:56.969Z,99674.91
2022-09-12T12:12:43.018Z,99664.09
2022-09-12T12:15:30.075Z,99663.25
2022-09-12T12:18:17.646Z,99664.97
2022-09-12T12:21:22.417Z,99661.25
2022-09-12T12:24:08.594Z,99663.19
2022-09-12T12:27:00.860Z,99663.63
2022-09-12T12:29:46.960Z,99659.22
2022-09-12T12:32:33.093Z,99656.69
2022-09-12T12:35:41.137Z,99665.22
2022-09-12T12:38:34.460Z,99661.91
2022-09-12T12:41:20.352Z,99666.88
2022-09-12T12:44:44.162Z,99666.06
2022-09-12T12:47:39.701Z,99655.66
2022-09-12T12:50:28.504Z,99656.56
2022-09-12T12:53:25.215Z,99655.03
2022-09-12T12:56:34.958Z,99653.00
2022-09-12T12:59:21.612Z,99647.25
2022-09-12T13:02:23.105Z,99647.25
2022-09-12T13:05:24.538Z,99641.06
2022-09-12T13:08:16.892Z,99627.78
2022-09-12T13:11:07.949Z,99626.63
2022-09-12T13:14:00.749Z,99625.19
2022-09-12T13:17:00.298Z,99645.00
2022-09-12T13:19:47.211Z,99642.91
2022-09-12T13:22:45.547Z,99639.53
2022-09-12T13:25:36.817Z,99627.53
2022-09-12T13:28:23.029Z,99617.53
2022-09-12T13:31:17.040Z,99607.00
2022-09-12T13:34:05.711Z,99613.75
2022-09-12T13:36:57.632Z,99602.69
2022-09-12T13:39:47.906Z,99617.25
2022-09-12T13:42:50.105Z,99605.06
2022-09-12T13:45:38.987Z,99611.09
2022-09-12T13:48:25.699Z,99596.75
2022-09-12T13:51:26.640Z,99613.34
2022-09-12T13:54:20.237Z,99606.03
2022-09-12T13:57:41.222Z,99609.34
2022-09-12T14:00:31.668Z,99603.78
2022-09-12T14:04:13.041Z,99602.75
2022-09-12T14:07:00.473Z,99601.03
2022-09-12T14:09:56.313Z,99614.38
2022-09-12T14:12:43.962Z,99618.19
2022-09-12T14:15:32.543Z,99613.75
2022-09-12T14:18:27.458Z,99597.91
2022-09-12T14:21:40.294Z,99595.63
2022-09-12T14:24:26.392Z,99602.00
2022-09-12T14:27:15.546Z,99601.62
2022-09-12T14:30:30.576Z,99614.38
2022-09-12T14:33:20.924Z,99597.63
2022-09-12T14:36:22.262Z,99607.94
2022-09-12T14:39:17.715Z,99605.37
2022-09-12T14:42:12.295Z,99607.06
2022-09-12T14:45:14.094Z,99601.03
2022-09-12T14:48:00.499Z,99609.22
2022-09-12T14:50:51.959Z,99611.56
2022-09-12T14:53:38.079Z,99613.56
2022-09-12T14:56:39.223Z,99605.41
2022-09-12T14:59:34.258Z,99598.31
2022-09-12T15:02:22.300Z,99604.56
2022-09-12T15:05:07.882Z,99599.03
2022-09-12T15:07:57.265Z,99597.34
2022-09-12T15:10:43.485Z,99593.44
2022-09-12T15:13:39.838Z,99596.47
2022-09-12T15:16:26.331Z,99585.69
2022-09-12T15:19:12.555Z,99596.91
2022-09-12T15:21:58.971Z,99592.53
2022-09-12T15:24:45.402Z,99584.41
2022-09-12T15:27:32.267Z,99579.66
2022-09-12T15:30:18.997Z,99589.25
2022-09-12T15:33:05.089Z,99581.72
2022-09-12T15:35:52.403Z,99585.50
2022-09-12T15:38:38.842Z,99595.47
2022-09-12T15:41:33.434Z,99584.13
2022-09-12T15:44:20.185Z,99595.38
2022-09-12T15:47:06.955Z,99589.37
2022-09-12T15:49:53.013Z,99588.84
2022-09-12T15:52:39.478Z,99578.25
2022-09-12T15:55:32.080Z,99584.75
2022-09-12T15:58:18.277Z,99590.56
2022-09-12T16:01:04.575Z,99585.47
2022-09-12T16:03:50.831Z,99591.34
2022-09-12T16:06:37.531Z,99585.31
2022-09-12T16:09:23.949Z,99591.53
2022-09-12T16:12:09.740Z,99589.41
2022-09-12T16:14:55.903Z,99587.88
2022-09-12T16:17:41.869Z,99575.88
2022-09-12T16:20:28.210Z,99578.03
2022-09-12T16:23:14.374Z,99581.78
2022-09-12T16:26:03.595Z,99581.47
2022-09-12T16:28:56.910Z,99587.47
2022-09-12T16:31:43.040Z,99589.81
2022-09-12T16:34:29.251Z,99586.22
2022-09-12T16:37:15.492Z,99589.25
2022-09-12T16:40:02.855Z,99593.81
2022-09-12T16:42:49.576Z,99591.47
2022-09-12T16:45:35.963Z,99586.03
2022-09-12T16:48:22.202Z,99590.00
2022-09-12T16:51:08.182Z,99579.13
2022-09-12T16:53:54.597Z,99583.63
2022-09-12T16:56:41.760Z,99589.47
2022-09-12T16:59:29.016Z,99580.53
2022-09-12T17:02:14.904Z,99578.34
2022-09-12T17:05:01.301Z,99583.25
2022-09-12T17:07:47.168Z,99580.44
2022-09-12T17:10:33.186Z,99585.72
2022-09-12T17:13:19.458Z,99587.03
2022-09-12T17:16:11.378Z,99591.97
2022-09-12T17:18:57.485Z,99590.06
2022-09-12T17:21:45.489Z,99583.66
2022-09-12T17:24:31.558Z,99587.25
2022-09-12T17:27:18.275Z,99597.31
2022-09-12T17:30:05.102Z,99600.19
2022-09-12T17:32:52.396Z,99599.31
2022-09-12T17:35:39.314Z,99599.91
2022-09-12T17:38:26.280Z,99606.69
2022-09-12T17:41:17.319Z,99609.84
2022-09-12T17:44:03.593Z,99614.94
2022-09-12T17:46:49.804Z,99615.19
2022-09-12T17:49:37.846Z,99620.09
2022-09-12T17:52:24.161Z,99626.56
2022-09-12T17:55:13.114Z,99632.94
2022-09-12T17:58:00.893Z,99632.53
2022-09-12T18:01:16.146Z,99634.44
2022-09-12T18:04:03.757Z,99631.16
2022-09-12T18:07:06.905Z,99637.13
2022-09-12T18:09:53.100Z,99637.09
2022-09-12T18:12:39.102Z,99642.53
2022-09-12T18:15:26.104Z,99637.91
2022-09-12T18:18:12.091Z,99649.41
2022-09-12T18:20:59.078Z,99651.03
2022-09-12T18:23:45.920Z,99656.91
2022-09-12T18:26:32.625Z,99657.41
2022-09-12T18:29:20.066Z,99656.25
2022-09-12T18:32:06.497Z,99664.72
2022-09-12T18:34:53.128Z,99661.88
2022-09-12T18:37:42.815Z,99664.22
2022-09-12T18:40:28.988Z,99665.13
2022-09-12T18:43:15.199Z,99667.22
2022-09-12T18:46:08.482Z,99665.72
2022-09-12T18:48:57.729Z,99667.22
2022-09-12T18:51:44.537Z,99664.97
2022-09-12T18:54:30.668Z,99669.47
2022-09-12T18:57:16.707Z,99669.31
2022-09-12T19:00:08.220Z,99661.69
2022-09-12T19:02:56.255Z,99663.63
2022-09-12T19:05:42.804Z,99660.16
2022-09-12T19:08:28.509Z,99663.09
2022-09-12T19:11:15.857Z,99655.97
2022-09-12T19:14:02.138Z,99657.81
2022-09-12T19:16:48.022Z,99657.13
2022-09-12T19:19:36.601Z,99659.19
2022-09-12T19:22:24.749Z,99652.38
2022-09-12T19:25:10.818Z,99657.25
2022-09-12T19:27:57.663Z,99663.50
2022-09-12T19:30:47.759Z,99659.44
2022-09-12T19:33:34.325Z,99673.56
2022-09-12T19:36:43.703Z,99671.78
2022-09-12T19:39:28.330Z,99669.47
2022-09-12T19:42:14.183Z,99674.78
2022-09-12T19:45:00.523Z,99664.84
2022-09-12T19:47:46.328Z,99664.00
2022-09-12T19:50:33.383Z,99669.91
2022-09-12T19:53:19.552Z,99653.62
2022-09-12T19:56:06.422Z,99666.75
2022-09-12T19:58:56.168Z,99662.59
2022-09-12T20:01:43.059Z,99672.87
2022-09-12T20:04:29.855Z,99669.28
2022-09-12T20:07:16.314Z,99671.84
2022-09-12T20:10:02.956Z,99663.50
2022-09-12T20:12:49.344Z,99662.06
2022-09-12T20:15:35.570Z,99668.63
2022-09-12T20:18:21.273Z,99660.53
2022-09-12T20:21:08.322Z,99658.44
2022-09-12T20:23:54.034Z,99659.25
2022-09-12T20:26:40.084Z,99660.41
2022-09-12T20:29:25.719Z,99670.75
2022-09-12T20:32:12.111Z,99674.22
2022-09-12T20:34:58.516Z,99676.00
2022-09-12T20:37:44.990Z,99670.47
2022-09-12T20:40:30.729Z,99687.69
2022-09-12T20:43:16.976Z,99671.50
2022-09-12T20:46:12.273Z,99682.88
2022-09-12T20:48:58.830Z,99689.56
2022-09-12T20:51:44.362Z,99688.00
2022-09-12T20:54:30.997Z,99687.66
2022-09-12T20:57:16.871Z,99681.19
2022-09-12T21:00:03.656Z,99675.28
2022-09-12T21:02:50.976Z,99687.03
2022-09-12T21:05:37.426Z,99683.81
2022-09-12T21:08:23.204Z,99690.94
2022-09-12T21:11:09.175Z,99683.25
2022-09-12T21:13:54.704Z,99681.06
2022-09-12T21:16:40.456Z,99685.88
2022-09-12T21:19:26.402Z,99697.81
2022-09-12T21:22:12.244Z,99687.41
2022-09-12T21:24:58.122Z,99692.84
2022-09-12T21:27:44.458Z,99695.66
2022-09-12T21:30:30.235Z,99700.31
2022-09-12T21:33:16.169Z,99702.66
2022-09-12T21:36:03.603Z,99701.84
2022-09-12T21:38:49.858Z,99702.16
2022-09-12T21:41:35.571Z,99703.63
2022-09-12T21:44:22.604Z,99710.34
2022-09-12T21:47:08.260Z,99703.03
2022-09-12T21:49:55.306Z,99706.59
2022-09-12T21:52:41.220Z,99707.34
2022-09-12T21:55:27.902Z,99704.34
2022-09-12T21:58:14.287Z,99713.41
2022-09-12T22:01:01.361Z,99703.66
2022-09-12T22:03:47.965Z,99709.66
2022-09-12T22:06:34.514Z,99709.88
2022-09-12T22:09:20.590Z,99705.59
2022-09-12T22:12:06.782Z,99702.16
2022-09-12T22:14:55.993Z,99704.09
2022-09-12T22:17:41.897Z,99709.25
2022-09-12T22:20:28.231Z,99709.75
2022-09-12T22:23:32.527Z,99709.88
2022-09-12T22:26:18.909Z,99704.47
2022-09-12T22:29:05.088Z,99714.75
2022-09-12T22:31:51.457Z,99702.31
2022-09-12T22:34:37.159Z,99715.38
2022-09-12T22:37:23.519Z,99720.31
2022-09-12T22:40:09.977Z,99718.13
2022-09-12T22:42:56.253Z,99719.00
2022-09-12T22:45:42.059Z,99720.19
2022-09-12T22:48:28.505Z,99717.53
2022-09-12T22:51:14.103Z,99708.12
2022-09-12T22:54:00.492Z,99716.81
2022-09-12T22:56:46.421Z,99721.81
2022-09-12T22:59:32.597Z,99722.28
2022-09-12T23:02:18.536Z,99717.72
2022-09-12T23:05:04.952Z,99713.88
2022-09-12T23:07:51.004Z,99713.56
2022-09-12T23:10:38.097Z,99718.47
2022-09-12T23:13:23.646Z,99714.72
2022-09-12T23:16:14.929Z,99723.38
2022-09-12T23:19:01.695Z,99722.31
2022-09-12T23:21:48.597Z,99722.44
2022-09-12T23:24:34.250Z,99717.91
2022-09-12T23:27:20.583Z,99718.87
2022-09-12T23:30:08.329Z,99716.78
2022-09-12T23:32:54.366Z,99721.34
2022-09-12T23:35:40.186Z,99718.56
2022-09-12T23:38:26.491Z,99719.84
2022-09-12T23:41:12.692Z,99709.84
2022-09-12T23:43:58.691Z,99714.38
2022-09-12T23:46:44.235Z,99715.03
2022-09-12T23:49:30.227Z,99723.91
2022-09-12T23:52:16.130Z,99720.16
2022-09-12T23:55:01.966Z,99721.16
2022-09-12T23:57:47.894Z,99713.56
